Time;durP1;ratioP1;P1;durP2;ratioP2;P2;SDS_P1;SDS_P2;PMS_P1;PMS_P2;Temp;Humidity;BMP_temperature;BMP_pressure;BME280_temperature;BME280_humidity;BME280_pressure;Samples;Min_cycle;Max_cycle;Signal;HPM_P1;HPM_P2
2021/03/20 00:00:00;;;;;;;;;50.25;46.25;;;;;;;;11966878;29;8893;-50
2021/03/20 00:06:03;;;;;;;;;42.25;38.00;;;;;;;;11963072;29;8902;-51
2021/03/20 00:12:15;;;;;;;;;51.25;47.25;;;;;;;;11966941;29;8854;-46
2021/03/20 00:18:16;;;;;;;;;60.50;49.00;;;;;;;;11964554;29;8897;-49
2021/03/20 00:24:18;;;;;;;;;60.67;52.00;;;;;;;;11965209;29;8871;-49
2021/03/20 00:30:21;;;;;;;;;67.67;55.33;;;;;;;;11965502;29;8878;-51
2021/03/20 00:36:22;;;;;;;;;67.25;53.50;;;;;;;;11963760;29;8913;-49
2021/03/20 00:42:39;;;;;;;;;59.67;49.00;;;;;;;;11979062;29;8933;-50
2021/03/20 00:48:42;;;;;;;;;56.00;46.33;;;;;;;;11963768;29;8870;-48
2021/03/20 00:54:43;;;;;;;;;55.67;46.67;;;;;;;;11963421;29;8879;-48
2021/03/20 01:00:45;;;;;;;;;54.33;42.00;;;;;;;;11965712;29;8875;-49
2021/03/20 01:06:47;;;;;;;;;63.00;48.67;;;;;;;;11962804;29;8962;-48
2021/03/20 01:12:59;;;;;;;;;51.67;48.00;;;;;;;;11964345;29;8882;-51
2021/03/20 01:19:00;;;;;;;;;51.67;48.00;;;;;;;;11961658;29;8902;-53
2021/03/20 01:25:04;;;;;;;;;65.33;50.33;;;;;;;;11963202;29;8875;-51
2021/03/20 01:31:07;;;;;;;;;44.67;39.67;;;;;;;;11963583;29;8870;-51
2021/03/20 01:37:08;;;;;;;;;53.25;47.00;;;;;;;;11962589;29;8874;-49
2021/03/20 01:43:25;;;;;;;;;52.00;46.00;;;;;;;;11963814;29;8886;-51
2021/03/20 01:49:31;;;;;;;;;59.50;49.25;;;;;;;;11962190;29;9635;-52
2021/03/20 01:55:33;;;;;;;;;47.33;42.33;;;;;;;;11962830;29;8855;-48
2021/03/20 02:01:36;;;;;;;;;58.33;47.67;;;;;;;;11961724;29;8996;-51
2021/03/20 02:07:38;;;;;;;;;58.67;48.00;;;;;;;;11960836;29;8906;-53
2021/03/20 02:13:51;;;;;;;;;64.00;52.67;;;;;;;;11962064;29;8919;-48
2021/03/20 02:20:10;;;;;;;;;53.67;47.00;;;;;;;;11961176;29;9655;-51
2021/03/20 02:26:25;;;;;;;;;65.00;53.33;;;;;;;;11962099;29;9591;-48
2021/03/20 02:32:50;;;;;;;;;56.67;49.00;;;;;;;;11965818;29;8870;-49
2021/03/20 02:39:04;;;;;;;;;72.67;54.00;;;;;;;;11969746;29;8866;-48
2021/03/20 02:45:19;;;;;;;;;64.00;49.67;;;;;;;;11968925;29;8909;-51
2021/03/20 02:52:03;;;;;;;;;48.00;44.67;;;;;;;;11968940;29;8905;-52
2021/03/20 02:58:20;;;;;;;;;65.67;51.33;;;;;;;;11958001;29;8965;-51
2021/03/20 03:04:24;;;;;;;;;69.33;50.67;;;;;;;;11967992;29;8890;-51
2021/03/20 03:10:35;;;;;;;;;63.33;49.67;;;;;;;;11967943;29;8887;-47
2021/03/20 03:16:45;;;;;;;;;67.67;52.00;;;;;;;;11967500;29;8908;-50
2021/03/20 03:23:00;;;;;;;;;60.67;51.00;;;;;;;;11968214;29;8882;-52
2021/03/20 03:29:11;;;;;;;;;56.67;48.33;;;;;;;;11966559;29;8906;-52
2021/03/20 03:35:24;;;;;;;;;66.00;51.67;;;;;;;;11967714;29;9668;-49
2021/03/20 03:41:31;;;;;;;;;63.67;50.00;;;;;;;;11965676;29;8897;-49
2021/03/20 03:47:32;;;;;;;;;67.67;55.67;;;;;;;;11966713;29;8901;-50
2021/03/20 03:53:34;;;;;;;;;66.00;53.33;;;;;;;;11966356;29;8921;-51
2021/03/20 04:00:09;;;;;;;;;63.33;49.00;;;;;;;;11965389;29;8882;-49
2021/03/20 04:06:32;;;;;;;;;66.00;48.67;;;;;;;;11965077;29;8934;-51
2021/03/20 04:12:42;;;;;;;;;66.67;52.00;;;;;;;;11965623;29;8890;-49
2021/03/20 04:18:59;;;;;;;;;68.33;52.67;;;;;;;;11966963;29;8949;-51
2021/03/20 04:25:23;;;;;;;;;75.00;60.33;;;;;;;;11965208;29;8874;-50
2021/03/20 04:31:31;;;;;;;;;70.00;60.00;;;;;;;;11966060;29;8894;-47
2021/03/20 04:37:38;;;;;;;;;73.67;55.00;;;;;;;;11964078;29;8882;-50
2021/03/20 04:43:41;;;;;;;;;77.33;60.67;;;;;;;;11964611;29;8859;-49
2021/03/20 04:49:59;;;;;;;;;60.67;54.00;;;;;;;;11977787;29;8882;-48
2021/03/20 04:56:06;;;;;;;;;70.33;57.67;;;;;;;;11963583;29;8870;-52
2021/03/20 05:02:23;;;;;;;;;65.00;52.00;;;;;;;;11964828;29;8878;-52
2021/03/20 05:08:30;;;;;;;;;75.00;59.33;;;;;;;;11963147;29;8871;-50
2021/03/20 05:14:41;;;;;;;;;69.67;53.33;;;;;;;;11964305;29;8863;-48
2021/03/20 05:20:43;;;;;;;;;65.67;52.67;;;;;;;;11962290;29;8870;-50
2021/03/20 05:26:45;;;;;;;;;60.67;50.33;;;;;;;;11962926;29;8866;-49
2021/03/20 05:32:46;;;;;;;;;72.00;57.00;;;;;;;;11963769;29;8932;-50
2021/03/20 05:38:48;;;;;;;;;69.67;53.00;;;;;;;;11961802;29;8901;-47
2021/03/20 05:45:27;;;;;;;;;65.33;52.00;;;;;;;;11963375;29;8883;-49
2021/03/20 05:52:02;;;;;;;;;65.00;52.00;;;;;;;;11962380;29;8946;-48
2021/03/20 05:58:29;;;;;;;;;65.75;50.25;;;;;;;;11962858;29;8886;-50
2021/03/20 06:04:45;;;;;;;;;63.25;49.75;;;;;;;;11962371;29;8893;-51
2021/03/20 06:10:58;;;;;;;;;60.50;49.00;;;;;;;;11971378;29;8938;-49
2021/03/20 06:17:20;;;;;;;;;54.00;48.75;;;;;;;;11970405;29;8881;-50
2021/03/20 06:24:03;;;;;;;;;47.75;42.75;;;;;;;;11960086;29;8886;-47
2021/03/20 06:30:23;;;;;;;;;57.25;48.75;;;;;;;;11965747;29;8936;-50
2021/03/20 06:36:35;;;;;;;;;54.00;46.25;;;;;;;;11970128;29;8886;-47
2021/03/20 06:42:37;;;;;;;;;55.00;46.75;;;;;;;;11968882;29;8882;-52
2021/03/20 06:48:40;;;;;;;;;66.00;49.25;;;;;;;;11968699;29;8990;-54
2021/03/20 06:54:42;;;;;;;;;59.00;47.25;;;;;;;;11969326;29;8866;-50
2021/03/20 07:00:44;;;;;;;;;51.50;46.00;;;;;;;;11967823;29;8862;-51
2021/03/20 07:07:15;;;;;;;;;59.25;49.50;;;;;;;;11968639;29;9668;-48
2021/03/20 07:13:25;;;;;;;;;56.25;47.00;;;;;;;;11967279;29;8866;-48
2021/03/20 07:19:27;;;;;;;;;64.00;50.75;;;;;;;;11982055;29;8890;-53
2021/03/20 07:25:33;;;;;;;;;60.00;49.50;;;;;;;;11967129;29;8882;-51
2021/03/20 07:31:51;;;;;;;;;49.50;43.25;;;;;;;;11966712;29;8894;-50
2021/03/20 07:37:53;;;;;;;;;52.00;46.50;;;;;;;;11967505;29;8983;-50
2021/03/20 07:43:59;;;;;;;;;49.50;43.00;;;;;;;;11966214;29;9081;-52
2021/03/20 07:50:24;;;;;;;;;52.50;43.25;;;;;;;;11968165;29;8859;-49
2021/03/20 07:56:36;;;;;;;;;49.75;43.00;;;;;;;;11966123;29;8882;-53
2021/03/20 08:02:42;;;;;;;;;56.00;46.75;;;;;;;;11966685;29;8870;-49
2021/03/20 08:08:45;;;;;;;;;52.00;44.50;;;;;;;;11965969;29;8890;-52
2021/03/20 08:14:54;;;;;;;;;55.50;47.50;;;;;;;;11964885;29;8878;-51
2021/03/20 08:21:16;;;;;;;;;59.50;46.75;;;;;;;;11965790;29;8858;-49
2021/03/20 08:27:24;;;;;;;;;58.50;47.00;;;;;;;;11964034;29;8858;-51
2021/03/20 08:33:34;;;;;;;;;47.75;41.75;;;;;;;;11966424;29;9655;-52
2021/03/20 08:39:45;;;;;;;;;47.50;43.25;;;;;;;;11964372;29;8867;-51
2021/03/20 08:46:02;;;;;;;;;53.00;43.00;;;;;;;;11964720;29;8859;-49
2021/03/20 08:52:22;;;;;;;;;46.00;38.50;;;;;;;;11978422;29;8878;-48
2021/03/20 08:58:32;;;;;;;;;46.25;42.25;;;;;;;;11964036;29;8905;-51
2021/03/20 09:04:36;;;;;;;;;55.25;45.25;;;;;;;;11964070;29;8883;-51
2021/03/20 09:10:42;;;;;;;;;44.50;38.25;;;;;;;;11963557;29;8870;-54
2021/03/20 09:16:49;;;;;;;;;51.50;44.25;;;;;;;;11964795;29;8862;-49
2021/03/20 09:22:52;;;;;;;;;50.75;45.00;;;;;;;;11962718;29;8851;-50
2021/03/20 09:28:56;;;;;;;;;51.00;41.00;;;;;;;;11976955;29;8893;-51
2021/03/20 09:34:58;;;;;;;;;53.50;45.00;;;;;;;;11963517;29;8913;-50
2021/03/20 09:41:00;;;;;;;;;48.75;42.50;;;;;;;;11961278;29;8913;-53
2021/03/20 09:47:30;;;;;;;;;44.50;42.25;;;;;;;;11963384;29;8917;-50
2021/03/20 09:53:35;;;;;;;;;35.00;32.75;;;;;;;;11961467;29;9035;-53
2021/03/20 09:59:37;;;;;;;;;44.25;39.50;;;;;;;;11962586;29;8903;-50
2021/03/20 10:05:38;;;;;;;;;36.50;35.00;;;;;;;;11961104;29;8887;-51
2021/03/20 10:11:52;;;;;;;;;49.25;43.00;;;;;;;;11960674;29;8871;-54
2021/03/20 10:18:04;;;;;;;;;41.75;40.25;;;;;;;;11961881;29;8909;-50
2021/03/20 10:24:15;;;;;;;;;34.75;34.00;;;;;;;;11960006;29;8893;-49
2021/03/20 10:30:22;;;;;;;;;38.25;35.00;;;;;;;;11961783;29;8858;-52
2021/03/20 10:36:44;;;;;;;;;29.00;28.25;;;;;;;;11959885;29;8858;-49
2021/03/20 10:42:50;;;;;;;;;33.75;30.75;;;;;;;;11974649;29;8916;-54
2021/03/20 10:48:55;;;;;;;;;30.00;30.00;;;;;;;;11960066;29;8870;-52
2021/03/20 10:54:59;;;;;;;;;31.75;29.25;;;;;;;;11966376;29;8949;-51
2021/03/20 11:01:02;;;;;;;;;32.00;27.50;;;;;;;;11968563;29;8862;-53
2021/03/20 11:07:14;;;;;;;;;31.50;27.25;;;;;;;;11966810;29;8878;-50
2021/03/20 11:13:15;;;;;;;;;26.75;24.25;;;;;;;;11968612;29;8862;-51
2021/03/20 11:19:43;;;;;;;;;28.00;25.75;;;;;;;;11967405;29;8882;-53
2021/03/20 11:25:45;;;;;;;;;31.25;28.75;;;;;;;;11966347;29;9628;-51
2021/03/20 11:31:53;;;;;;;;;51.25;41.75;;;;;;;;11967908;29;8885;-47
2021/03/20 11:38:00;;;;;;;;;30.00;30.00;;;;;;;;11966444;29;8890;-50
2021/03/20 11:44:24;;;;;;;;;25.50;22.75;;;;;;;;11967742;29;8890;-50
2021/03/20 11:50:29;;;;;;;;;27.00;25.00;;;;;;;;11980709;29;8878;-52
2021/03/20 11:56:34;;;;;;;;;27.75;25.50;;;;;;;;11968315;29;8886;-53
2021/03/20 12:02:38;;;;;;;;;30.25;25.00;;;;;;;;11964700;29;8870;-52
2021/03/20 12:08:42;;;;;;;;;28.00;28.00;;;;;;;;11979375;29;9001;-52
2021/03/20 12:14:48;;;;;;;;;28.75;25.75;;;;;;;;11966527;29;9629;-49
2021/03/20 12:20:50;;;;;;;;;28.75;27.00;;;;;;;;11978628;29;8890;-52
2021/03/20 12:26:51;;;;;;;;;25.50;24.50;;;;;;;;11966898;29;9775;-54
2021/03/20 12:33:18;;;;;;;;;32.00;30.50;;;;;;;;11964234;29;8901;-52
2021/03/20 12:39:24;;;;;;;;;28.75;26.00;;;;;;;;11965320;29;8923;-49
2021/03/20 12:45:32;;;;;;;;;16.25;15.25;;;;;;;;11964319;29;8882;-54
2021/03/20 12:51:50;;;;;;;;;23.00;23.00;;;;;;;;11963659;29;8877;-54
2021/03/20 12:57:51;;;;;;;;;27.25;21.50;;;;;;;;11965354;29;8886;-54
2021/03/20 13:03:52;;;;;;;;;27.00;27.00;;;;;;;;11962754;29;8920;-51
2021/03/20 13:09:55;;;;;;;;;25.75;24.00;;;;;;;;11964251;29;8905;-53
2021/03/20 13:15:58;;;;;;;;;25.25;23.75;;;;;;;;11963136;29;8928;-52
2021/03/20 13:22:13;;;;;;;;;25.50;24.75;;;;;;;;11962810;29;9531;-51
2021/03/20 13:28:15;;;;;;;;;25.75;25.75;;;;;;;;11964213;29;8902;-53
2021/03/20 13:34:17;;;;;;;;;28.25;27.75;;;;;;;;11963214;29;9735;-50
2021/03/20 13:40:26;;;;;;;;;20.25;20.25;;;;;;;;11963342;29;9550;-49
2021/03/20 13:46:27;;;;;;;;;24.50;23.25;;;;;;;;11959320;29;8961;-52
2021/03/20 13:52:36;;;;;;;;;29.75;28.00;;;;;;;;11959671;29;8905;-52
2021/03/20 13:58:38;;;;;;;;;28.75;26.50;;;;;;;;11958605;29;8910;-52
2021/03/20 14:04:39;;;;;;;;;23.50;23.00;;;;;;;;11957649;29;8905;-52
2021/03/20 14:10:43;;;;;;;;;25.50;21.50;;;;;;;;11959792;29;8862;-55
2021/03/20 14:16:44;;;;;;;;;25.75;22.00;;;;;;;;11957618;29;8901;-47
2021/03/20 14:22:59;;;;;;;;;25.75;21.25;;;;;;;;11961838;29;8854;-51
2021/03/20 14:29:00;;;;;;;;;31.75;28.25;;;;;;;;11967588;29;8867;-49
2021/03/20 14:35:02;;;;;;;;;26.25;26.25;;;;;;;;11968993;29;8882;-51
2021/03/20 14:41:05;;;;;;;;;28.50;25.25;;;;;;;;11970561;29;8862;-53
2021/03/20 14:47:06;;;;;;;;;29.00;27.75;;;;;;;;11968764;29;8874;-54
2021/03/20 14:53:21;;;;;;;;;24.25;24.00;;;;;;;;11969194;29;8869;-52
2021/03/20 14:59:22;;;;;;;;;31.00;25.75;;;;;;;;11968981;29;8871;-52
2021/03/20 15:05:25;;;;;;;;;35.00;33.75;;;;;;;;11967525;29;9691;-55
2021/03/20 15:11:27;;;;;;;;;23.25;22.50;;;;;;;;11969257;29;8871;-52
2021/03/20 15:17:29;;;;;;;;;27.25;25.25;;;;;;;;11981355;29;8901;-50
2021/03/20 15:23:44;;;;;;;;;23.25;23.25;;;;;;;;11968107;29;8854;-53
2021/03/20 15:29:45;;;;;;;;;26.50;26.50;;;;;;;;11967659;29;9651;-55
2021/03/20 15:35:48;;;;;;;;;24.75;24.75;;;;;;;;11967328;29;8874;-50
2021/03/20 15:41:50;;;;;;;;;32.50;29.50;;;;;;;;11966918;29;8858;-52
2021/03/20 15:47:51;;;;;;;;;25.25;23.50;;;;;;;;11980249;29;8874;-53
2021/03/20 15:54:07;;;;;;;;;30.75;26.25;;;;;;;;11979942;29;8870;-49
2021/03/20 16:00:11;;;;;;;;;35.00;30.50;;;;;;;;11965838;29;8882;-53
2021/03/20 16:06:14;;;;;;;;;31.25;27.75;;;;;;;;11965612;29;8894;-50
2021/03/20 16:12:16;;;;;;;;;28.50;25.00;;;;;;;;11965370;29;8904;-50
2021/03/20 16:18:19;;;;;;;;;26.00;26.00;;;;;;;;11964593;29;9009;-48
2021/03/20 16:24:32;;;;;;;;;33.50;30.25;;;;;;;;11967026;29;9675;-52
2021/03/20 16:30:44;;;;;;;;;30.00;26.75;;;;;;;;11965285;29;8881;-52
2021/03/20 16:36:46;;;;;;;;;42.75;36.75;;;;;;;;11964621;29;9050;-55
2021/03/20 16:42:49;;;;;;;;;35.25;32.25;;;;;;;;11965533;29;8894;-51
2021/03/20 16:48:50;;;;;;;;;39.25;34.25;;;;;;;;11963509;29;8878;-54
2021/03/20 16:54:58;;;;;;;;;30.25;30.25;;;;;;;;11965158;29;8989;-50
2021/03/20 17:01:00;;;;;;;;;34.25;31.00;;;;;;;;11964076;29;8965;-53
2021/03/20 17:07:01;;;;;;;;;40.25;35.75;;;;;;;;11963472;29;9089;-50
2021/03/20 17:13:05;;;;;;;;;44.75;39.25;;;;;;;;11964546;29;8874;-49
2021/03/20 17:19:07;;;;;;;;;44.00;39.00;;;;;;;;11963278;29;8910;-49
2021/03/20 17:25:22;;;;;;;;;40.25;39.50;;;;;;;;11964740;29;8858;-52
2021/03/20 17:31:23;;;;;;;;;49.00;37.50;;;;;;;;11963141;29;8992;-49
2021/03/20 17:37:25;;;;;;;;;38.50;36.00;;;;;;;;11963117;29;9644;-55
2021/03/20 17:43:26;;;;;;;;;36.25;30.25;;;;;;;;11963338;29;8870;-55
2021/03/20 17:49:27;;;;;;;;;38.50;34.25;;;;;;;;11962422;29;8908;-55
2021/03/20 17:55:43;;;;;;;;;39.25;38.50;;;;;;;;11963639;29;8878;-56
2021/03/20 18:01:45;;;;;;;;;38.50;37.75;;;;;;;;11965054;29;8881;-51
2021/03/20 18:07:47;;;;;;;;;45.25;40.50;;;;;;;;11985049;29;8866;-55
2021/03/20 18:13:48;;;;;;;;;47.00;42.00;;;;;;;;11984720;29;9620;-54
2021/03/20 18:19:51;;;;;;;;;36.00;31.75;;;;;;;;11970770;29;8909;-51
2021/03/20 18:26:06;;;;;;;;;42.25;36.75;;;;;;;;11970762;29;8892;-53
2021/03/20 18:32:08;;;;;;;;;41.50;35.00;;;;;;;;11969343;29;9644;-53
2021/03/20 18:38:18;;;;;;;;;43.00;36.75;;;;;;;;11970023;29;8867;-54
2021/03/20 18:44:19;;;;;;;;;42.75;38.75;;;;;;;;11969437;29;8878;-52
2021/03/20 18:50:31;;;;;;;;;42.75;37.00;;;;;;;;11968708;29;8866;-55
2021/03/20 18:56:33;;;;;;;;;46.50;40.00;;;;;;;;11983317;29;8917;-52
2021/03/20 19:02:35;;;;;;;;;42.25;39.50;;;;;;;;11967670;29;8882;-52
2021/03/20 19:08:37;;;;;;;;;45.25;42.25;;;;;;;;11969537;29;9655;-54
2021/03/20 19:14:42;;;;;;;;;46.25;41.25;;;;;;;;11967621;29;9616;-53
2021/03/20 19:20:43;;;;;;;;;47.00;43.75;;;;;;;;11967861;29;8897;-55
2021/03/20 19:26:51;;;;;;;;;48.50;41.50;;;;;;;;11968777;29;8934;-53
2021/03/20 19:32:53;;;;;;;;;48.50;42.75;;;;;;;;11966712;29;8867;-54
2021/03/20 19:38:55;;;;;;;;;44.25;36.50;;;;;;;;11968394;29;9679;-52
2021/03/20 19:44:58;;;;;;;;;44.25;39.25;;;;;;;;11966496;29;8907;-51
2021/03/20 19:51:07;;;;;;;;;43.75;40.50;;;;;;;;11966779;29;8863;-53
2021/03/20 19:57:22;;;;;;;;;15.00;12.75;;;;;;;;11966623;29;8874;-53
2021/03/20 20:03:25;;;;;;;;;51.50;42.00;;;;;;;;11979207;29;8898;-51
2021/03/20 20:09:26;;;;;;;;;34.75;33.00;;;;;;;;11966825;29;8901;-48
2021/03/20 20:15:28;;;;;;;;;38.75;35.50;;;;;;;;11966012;29;8897;-53
2021/03/20 20:21:33;;;;;;;;;43.00;41.50;;;;;;;;11966206;29;8886;-50
2021/03/20 20:27:43;;;;;;;;;32.75;31.00;;;;;;;;11964740;29;8893;-52
2021/03/20 20:33:47;;;;;;;;;41.50;36.75;;;;;;;;11978388;29;8955;-49
2021/03/20 20:39:50;;;;;;;;;47.25;37.50;;;;;;;;11965416;29;8904;-49
2021/03/20 20:46:00;;;;;;;;;41.25;37.25;;;;;;;;11965543;29;8867;-50
2021/03/20 20:52:02;;;;;;;;;40.25;36.00;;;;;;;;11965416;29;8850;-47
2021/03/20 20:58:06;;;;;;;;;44.75;39.75;;;;;;;;11964854;29;8883;-52
2021/03/20 21:04:07;;;;;;;;;39.50;37.50;;;;;;;;11963126;29;8905;-51
2021/03/20 21:10:10;;;;;;;;;43.25;39.25;;;;;;;;11964736;29;8875;-51
2021/03/20 21:16:11;;;;;;;;;39.75;35.50;;;;;;;;11962693;29;8901;-49
2021/03/20 21:22:13;;;;;;;;;38.00;33.50;;;;;;;;11964896;29;8996;-49
2021/03/20 21:28:30;;;;;;;;;39.25;34.25;;;;;;;;11962681;29;8878;-51
2021/03/20 21:34:34;;;;;;;;;30.25;30.25;;;;;;;;11976591;29;8866;-49
2021/03/20 21:40:38;;;;;;;;;32.75;32.75;;;;;;;;11963590;29;8913;-48
2021/03/20 21:46:43;;;;;;;;;37.75;28.75;;;;;;;;11962387;29;8859;-51
2021/03/20 21:52:45;;;;;;;;;43.00;37.50;;;;;;;;11964257;29;8906;-53
2021/03/20 21:58:50;;;;;;;;;34.50;34.50;;;;;;;;11962309;29;10154;-51
2021/03/20 22:04:52;;;;;;;;;38.50;33.75;;;;;;;;11961573;29;8893;-54
2021/03/20 22:10:54;;;;;;;;;36.50;33.50;;;;;;;;11962374;29;8920;-51
2021/03/20 22:16:55;;;;;;;;;39.50;35.50;;;;;;;;11961112;29;8878;-53
2021/03/20 22:22:58;;;;;;;;;38.00;36.75;;;;;;;;11963060;29;8893;-50
2021/03/20 22:29:11;;;;;;;;;37.00;32.50;;;;;;;;11960871;29;9629;-50
2021/03/20 22:35:13;;;;;;;;;38.50;36.50;;;;;;;;11962025;29;8927;-54
2021/03/20 22:41:16;;;;;;;;;35.25;33.25;;;;;;;;11961901;29;8894;-50
2021/03/20 22:47:17;;;;;;;;;33.50;30.50;;;;;;;;11963210;29;8870;-49
2021/03/20 22:53:19;;;;;;;;;35.50;33.25;;;;;;;;11971043;29;8909;-52
2021/03/20 22:59:35;;;;;;;;;32.50;32.00;;;;;;;;11968511;29;8972;-53
2021/03/20 23:05:37;;;;;;;;;36.50;34.75;;;;;;;;11968707;29;8878;-50
2021/03/20 23:11:40;;;;;;;;;41.50;38.00;;;;;;;;12013152;29;8968;-52
2021/03/20 23:17:41;;;;;;;;;31.25;29.50;;;;;;;;12026556;29;8959;-48
2021/03/20 23:23:43;;;;;;;;;38.75;31.75;;;;;;;;12014392;29;8860;-51
2021/03/20 23:29:58;;;;;;;;;40.25;34.25;;;;;;;;12013363;29;9049;-49
2021/03/20 23:36:00;;;;;;;;;30.25;29.25;;;;;;;;12013599;29;8958;-49
2021/03/20 23:42:02;;;;;;;;;36.50;32.00;;;;;;;;12012966;29;9280;-49
2021/03/20 23:48:04;;;;;;;;;35.75;34.75;;;;;;;;12012329;29;8955;-49
2021/03/20 23:54:06;;;;;;;;;36.75;33.75;;;;;;;;12012853;29;9631;-48
